Terminal Aerodrome Forecast
Issued by NWS

Home | Current Version | Previous Version | Text Only | Print | Product List | Glossary Off
Versions: 1 2 3 4 5 6 7 8 9 10 11 12 13 14 15 16 17 18 19 20

000
FTUS43 KMPX 251120
TAFRNH
TAF
KRNH 251120Z 2512/2612 16009KT P6SM VCSH BKN100
      TEMPO 2512/2514 6SM -SHRA
     FM251600 17013KT P6SM SCT090
     FM260300 17007KT P6SM SHRA VCTS BKN040CB PROB30 2605/2608 4SM
      TSRA SCT015 BKN040CB
     FM260900 22005KT P6SM FEW005 OVC250=

USA.gov is the U.S. government's official web portal to all federal, state and local government web resources and services.